Friday, August 29, 2014, 10:16 AM EDT

KLKU, Louisa, Louisa County Airport/freeman Field

Location: Louisa, VA, United States Lat: 38.01
Local Time: 10:16 AM EDT (14:16 GMT) Lon: -77.97
Time Zone: US/Eastern Elev: 492 ft

Show me the last for .
Show Decoded

2014-08-29 09:55 METAR KLKU 291355Z AUTO 01003KT 10SM CLR 21/14 A3020 RMK AO2 =
2014-08-29 09:35 METAR KLKU 291335Z AUTO 02003KT 10SM CLR 20/14 A3020 RMK AO2 =
2014-08-29 09:15 METAR KLKU 291315Z AUTO 03005KT 10SM CLR 19/14 A3019 RMK AO2 =
2014-08-29 08:55 METAR KLKU 291255Z AUTO 03004KT 10SM CLR 19/14 A3019 RMK AO2 =
2014-08-29 08:35 METAR KLKU 291235Z AUTO 03004KT 10SM CLR 18/14 A3019 RMK AO2 =
2014-08-29 07:55 METAR KLKU 291155Z AUTO 36003KT 10SM CLR 16/13 A3019 RMK AO2 =
2014-08-29 07:35 METAR KLKU 291135Z AUTO 35005KT 10SM CLR 16/13 A3018 RMK AO2 =
2014-08-29 07:15 METAR KLKU 291115Z AUTO 35003KT 10SM CLR 16/13 A3017 RMK AO2 =
2014-08-29 06:55 METAR KLKU 291055Z AUTO 35004KT 10SM CLR 16/13 A3016 RMK AO2 =
2014-08-29 06:35 METAR KLKU 291035Z AUTO 35003KT 10SM CLR 16/13 A3016 RMK AO2 =
2014-08-29 06:15 METAR KLKU 291015Z AUTO 35003KT 10SM CLR 16/13 A3015 RMK AO2 =
2014-08-29 05:55 METAR KLKU 290955Z AUTO 36004KT 10SM CLR 16/13 A3014 RMK AO2 =
2014-08-29 05:35 METAR KLKU 290935Z AUTO 35004KT 10SM CLR 16/13 A3013 RMK AO2 =
2014-08-29 05:15 METAR KLKU 290915Z AUTO 00000KT 10SM CLR 17/13 A3013 RMK AO2 =
2014-08-29 04:55 METAR KLKU 290855Z AUTO 36004KT 10SM CLR 17/13 A3013 RMK AO2 =
2014-08-29 04:35 METAR KLKU 290835Z AUTO 35004KT 10SM SCT060 17/14 A3012 RMK AO2 =
2014-08-29 04:15 METAR KLKU 290815Z AUTO 36003KT 10SM SCT060 18/14 A3012 RMK AO2 =
2014-08-29 03:35 METAR KLKU 290735Z AUTO 00000KT 10SM CLR 16/14 A3011 RMK AO2 =
2014-08-29 03:15 METAR KLKU 290715Z AUTO 00000KT 10SM SCT060 17/14 A3011 RMK AO2 =
2014-08-29 02:55 METAR KLKU 290655Z AUTO 00000KT 10SM BKN060 19/14 A3011 RMK AO2 =
2014-08-29 02:35 METAR KLKU 290635Z AUTO 01004KT 10SM OVC060 20/14 A3011 RMK AO2 =
2014-08-29 02:15 METAR KLKU 290615Z AUTO 03003KT 10SM BKN060 18/14 A3011 RMK AO2 =
2014-08-29 01:55 METAR KLKU 290555Z AUTO 03003KT 10SM SCT060 19/14 A3011 RMK AO2 =
2014-08-29 01:35 METAR KLKU 290535Z AUTO 02003KT 10SM SCT060 20/13 A3011 RMK AO2 =
2014-08-29 01:15 METAR KLKU 290515Z AUTO 03003KT 10SM BKN060 19/14 A3011 RMK AO2 =
2014-08-29 00:55 METAR KLKU 290455Z AUTO 04003KT 10SM BKN060 OVC070 21/14 A3011 RMK AO2 =
2014-08-29 00:35 METAR KLKU 290435Z AUTO 02004KT 10SM SCT060 OVC070 21/14 A3010 RMK AO2 =
2014-08-29 00:15 METAR KLKU 290415Z AUTO 04004KT 10SM SCT060 OVC070 21/14 A3009 RMK AO2 =
2014-08-28 23:55 METAR KLKU 290355Z AUTO 05004KT 10SM BKN060 21/14 A3009 RMK AO2 =
2014-08-28 23:35 METAR KLKU 290335Z AUTO 04005KT 10SM CLR 21/14 A3008 RMK AO2 =
2014-08-28 23:15 METAR KLKU 290315Z AUTO 02005KT 10SM CLR 22/14 A3007 RMK AO2 =
2014-08-28 22:55 METAR KLKU 290255Z AUTO 03006KT 10SM CLR 22/16 A3007 RMK AO2 =
2014-08-28 22:35 METAR KLKU 290235Z AUTO 03005KT 10SM SCT075 22/17 A3006 RMK AO2 =
2014-08-28 22:15 METAR KLKU 290215Z AUTO 02005KT 10SM SCT060 SCT075 23/17 A3006 RMK AO2 =
2014-08-28 21:55 METAR KLKU 290155Z AUTO 03005KT 10SM BKN060 23/17 A3005 RMK AO2 =
2014-08-28 21:35 METAR KLKU 290135Z AUTO 04005KT 10SM CLR 23/17 A3004 RMK AO2 =
2014-08-28 21:15 METAR KLKU 290115Z AUTO 06004KT 10SM SCT060 24/17 A3003 RMK AO2 =
2014-08-28 20:55 METAR KLKU 290055Z AUTO 05004KT 10SM CLR 23/18 A3002 RMK AO2 =
2014-08-28 20:35 METAR KLKU 290035Z AUTO 06004KT 10SM CLR 22/18 A3001 RMK AO2 =
2014-08-28 20:15 METAR KLKU 290015Z AUTO 05004KT 10SM CLR 21/19 A3000 RMK AO2 =
2014-08-28 19:55 METAR KLKU 282355Z AUTO 00000KT 10SM CLR 22/20 A2999 RMK AO2 =
2014-08-28 19:35 METAR KLKU 282335Z AUTO 00000KT 10SM CLR 24/21 A2998 RMK AO2 =
2014-08-28 19:15 METAR KLKU 282315Z AUTO 00000KT 10SM CLR 27/19 A2998 RMK AO2 =
2014-08-28 18:55 METAR KLKU 282255Z AUTO 00000KT 10SM CLR 28/19 A2997 RMK AO2 =
2014-08-28 18:35 METAR KLKU 282235Z AUTO 08003KT 10SM CLR 28/19 A2997 RMK AO2 =
2014-08-28 18:15 METAR KLKU 282215Z AUTO 04005KT 10SM CLR 29/19 A2997 RMK AO2 =
2014-08-28 17:55 METAR KLKU 282155Z AUTO 01004KT 10SM CLR 30/19 A2996 RMK AO2 =
2014-08-28 17:35 METAR KLKU 282135Z AUTO 01004KT 10SM CLR 29/19 A2996 RMK AO2 =
2014-08-28 17:15 METAR KLKU 282115Z AUTO 01004KT 10SM CLR 30/19 A2996 RMK AO2 =
2014-08-28 16:55 METAR KLKU 282055Z AUTO 01004KT 10SM CLR 31/19 A2995 RMK AO2 =
2014-08-28 16:35 METAR KLKU 282035Z AUTO 00000KT 10SM CLR 30/19 A2995 RMK AO2 =
2014-08-28 16:15 METAR KLKU 282015Z AUTO 02005KT 10SM CLR 31/19 A2995 RMK AO2 =
2014-08-28 15:55 METAR KLKU 281955Z AUTO 35004KT 10SM CLR 31/19 A2996 RMK AO2 =
2014-08-28 15:35 METAR KLKU 281935Z AUTO 02004KT 10SM CLR 30/19 A2996 RMK AO2 =
2014-08-28 15:15 METAR KLKU 281915Z AUTO 36006KT 10SM SCT060 30/19 A2996 RMK AO2 =
2014-08-28 14:55 METAR KLKU 281855Z AUTO 03004KT 10SM CLR 30/19 A2997 RMK AO2 =
2014-08-28 14:35 METAR KLKU 281835Z AUTO 36005KT 10SM CLR 30/19 A2997 RMK AO2 =
2014-08-28 14:15 METAR KLKU 281815Z AUTO 00000KT 10SM CLR 30/19 A2998 RMK AO2 =
2014-08-28 13:55 METAR KLKU 281755Z AUTO 01007KT 10SM CLR 30/20 A2998 RMK AO2 =
2014-08-28 13:35 METAR KLKU 281735Z AUTO 03004KT 10SM CLR 29/19 A2998 RMK AO2 =
2014-08-28 13:15 METAR KLKU 281715Z AUTO 00000KT 10SM CLR 28/19 A2998 RMK AO2 =
2014-08-28 12:55 METAR KLKU 281655Z AUTO 06004KT 10SM SCT033 29/20 A2998 RMK AO2 =
2014-08-28 12:35 METAR KLKU 281635Z AUTO 04003KT 10SM SCT033 28/20 A2999 RMK AO2 =
2014-08-28 12:15 METAR KLKU 281615Z AUTO 03004KT 10SM CLR 28/20 A2999 RMK AO2 =
2014-08-28 11:55 METAR KLKU 281555Z AUTO 02005KT 10SM SCT026 28/21 A2999 RMK AO2 =
2014-08-28 11:35 METAR KLKU 281535Z AUTO 35007KT 10SM CLR 28/21 A3000 RMK AO2 =
2014-08-28 11:15 METAR KLKU 281515Z AUTO 36007KT 10SM CLR 28/21 A3000 RMK AO2 =
2014-08-28 10:55 METAR KLKU 281455Z AUTO 03004KT 10SM CLR 27/21 A3000 RMK AO2 =
2014-08-28 10:35 METAR KLKU 281435Z AUTO 00000KT 10SM CLR 27/21 A3000 RMK AO2 =

Support USWX by starting your Amazon purchase here.